Time;durP1;ratioP1;P1;durP2;ratioP2;P2;SDS_P1;SDS_P2;PMS_P1;PMS_P2;Temp;Humidity;BMP_temperature;BMP_pressure;BME280_temperature;BME280_humidity;BME280_pressure;Samples;Min_cycle;Max_cycle;Signal;HPM_P1;HPM_P2
2022/08/29 00:02:25;;;;;;;11.45;3.78;;;14.80;99.90;;;;;;5032739;28;20514;-65
2022/08/29 00:04:51;;;;;;;10.32;4.18;;;14.80;99.90;;;;;;5054483;28;20119;-64
2022/08/29 00:07:16;;;;;;;9.05;4.90;;;14.80;99.90;;;;;;5053544;28;20037;-64
2022/08/29 00:09:42;;;;;;;13.00;4.10;;;14.80;99.90;;;;;;5050862;28;20040;-64
2022/08/29 00:12:08;;;;;;;8.90;4.22;;;14.80;99.90;;;;;;5032888;28;20064;-64
2022/08/29 00:14:34;;;;;;;10.55;4.13;;;14.80;99.90;;;;;;5038420;28;20036;-65
2022/08/29 00:16:59;;;;;;;10.50;4.13;;;14.80;99.90;;;;;;5059690;28;20037;-65
2022/08/29 00:19:26;;;;;;;9.23;4.70;;;14.80;99.90;;;;;;5070612;28;20486;-64
2022/08/29 00:21:52;;;;;;;9.90;4.10;;;14.80;99.90;;;;;;5058920;28;20093;-65
2022/08/29 00:24:18;;;;;;;11.55;4.30;;;14.80;99.90;;;;;;5056132;28;20052;-64
2022/08/29 00:26:44;;;;;;;21.95;4.65;;;14.80;99.90;;;;;;5050697;28;20033;-64
2022/08/29 00:29:09;;;;;;;10.65;4.30;;;14.80;99.90;;;;;;5050502;28;20421;-64
2022/08/29 00:31:35;;;;;;;11.73;4.43;;;14.80;99.90;;;;;;5050387;28;20032;-64
2022/08/29 00:34:00;;;;;;;11.40;4.45;;;14.80;99.90;;;;;;5050095;28;20044;-65
2022/08/29 00:36:26;;;;;;;7.78;4.43;;;14.80;99.90;;;;;;5050226;28;20040;-64
2022/08/29 00:38:52;;;;;;;7.90;4.28;;;14.80;99.90;;;;;;5059170;28;20064;-64
2022/08/29 00:41:18;;;;;;;10.60;4.80;;;14.80;99.90;;;;;;5051559;28;20068;-65
2022/08/29 00:43:43;;;;;;;11.05;4.43;;;14.80;99.90;;;;;;5050506;28;20044;-64
2022/08/29 00:46:33;;;;;;;9.25;5.10;;;14.80;99.90;;;;;;5053972;28;20048;-65
2022/08/29 00:49:07;;;;;;;7.63;4.50;;;14.80;99.90;;;;;;5049723;28;20037;-64
2022/08/29 00:51:34;;;;;;;10.52;4.57;;;14.80;99.90;;;;;;5050023;28;20048;-64
2022/08/29 00:54:08;;;;;;;8.30;4.00;;;14.70;99.90;;;;;;5049891;28;20040;-65
2022/08/29 00:56:35;;;;;;;9.38;4.55;;;14.70;99.90;;;;;;5054035;28;20040;-64
2022/08/29 00:59:12;;;;;;;7.72;3.97;;;14.70;99.90;;;;;;5050088;28;20040;-64
2022/08/29 01:01:38;;;;;;;11.27;4.10;;;14.70;99.90;;;;;;5049994;28;20045;-64
2022/08/29 01:04:05;;;;;;;8.73;4.57;;;14.70;99.90;;;;;;5053209;28;20067;-64
2022/08/29 01:06:33;;;;;;;11.70;4.40;;;14.70;99.90;;;;;;5049747;28;20048;-65
2022/08/29 01:08:59;;;;;;;8.52;4.78;;;14.70;99.90;;;;;;5049981;28;20491;-64
2022/08/29 01:14:13;;;;;;;9.63;4.60;;;14.80;99.90;;;;;;5049660;28;20045;-64
2022/08/29 01:16:39;;;;;;;12.57;4.97;;;14.80;99.90;;;;;;5052311;28;20068;-64
2022/08/29 01:19:56;;;;;;;11.10;4.63;;;14.80;99.90;;;;;;5065973;28;20033;-65
2022/08/29 01:22:46;;;;;;;11.32;4.47;;;14.80;99.90;;;;;;4972174;28;20074;-65
2022/08/29 01:25:18;;;;;;;9.55;4.53;;;14.70;99.90;;;;;;5047338;28;20053;-64
2022/08/29 01:27:51;;;;;;;7.65;4.45;;;14.70;99.90;;;;;;5052285;28;20064;-65
2022/08/29 01:30:17;;;;;;;9.75;4.82;;;14.70;99.90;;;;;;5068490;28;20044;-64
2022/08/29 01:32:43;;;;;;;10.32;4.47;;;14.70;99.90;;;;;;5052446;28;20025;-64
2022/08/29 01:35:09;;;;;;;10.07;4.82;;;14.70;99.90;;;;;;5053462;28;20043;-65
2022/08/29 01:37:37;;;;;;;10.68;5.40;;;14.70;99.90;;;;;;5056118;28;20029;-64
2022/08/29 01:40:04;;;;;;;10.38;4.70;;;14.70;99.90;;;;;;5053754;28;20072;-64
2022/08/29 01:42:30;;;;;;;6.88;4.38;;;14.70;99.90;;;;;;5053476;28;20036;-64
2022/08/29 01:44:59;;;;;;;9.63;4.60;;;14.80;99.90;;;;;;5050193;28;20044;-64
2022/08/29 01:47:28;;;;;;;8.85;4.65;;;14.70;99.90;;;;;;5052986;28;20041;-64
2022/08/29 01:49:54;;;;;;;8.43;4.40;;;14.70;99.90;;;;;;5053295;28;20116;-65
2022/08/29 01:52:20;;;;;;;8.73;4.78;;;14.80;99.90;;;;;;5051312;28;21063;-64
2022/08/29 01:54:46;;;;;;;9.10;4.70;;;14.80;99.90;;;;;;5052591;28;20037;-64
2022/08/29 01:57:14;;;;;;;9.07;4.60;;;14.70;99.90;;;;;;5053223;28;20036;-64
2022/08/29 01:59:41;;;;;;;12.00;4.65;;;14.80;99.90;;;;;;5053085;28;20037;-65
2022/08/29 02:02:28;;;;;;;10.40;4.35;;;14.80;99.90;;;;;;5049634;28;20072;-65
2022/08/29 02:04:57;;;;;;;12.60;4.47;;;14.80;99.90;;;;;;5052147;28;20053;-65
2022/08/29 02:07:24;;;;;;;9.70;4.40;;;14.80;99.90;;;;;;5053359;28;20514;-64
2022/08/29 02:09:50;;;;;;;12.00;4.63;;;14.80;99.90;;;;;;5053122;28;20033;-65
2022/08/29 02:12:19;;;;;;;9.07;5.03;;;14.80;99.90;;;;;;5039833;28;20052;-64
2022/08/29 02:14:45;;;;;;;9.50;4.45;;;14.80;99.90;;;;;;5056553;28;20037;-64
2022/08/29 02:17:10;;;;;;;11.15;4.80;;;14.80;99.90;;;;;;5059555;28;20044;-65
2022/08/29 02:19:37;;;;;;;8.70;4.43;;;14.80;99.90;;;;;;5053746;28;20079;-65
2022/08/29 02:22:04;;;;;;;10.63;4.78;;;14.70;99.90;;;;;;5034531;28;20045;-65
2022/08/29 02:24:29;;;;;;;10.35;5.38;;;14.70;99.90;;;;;;5052839;28;20500;-64
2022/08/29 02:26:56;;;;;;;16.95;5.63;;;14.70;99.90;;;;;;5051131;28;20160;-65
2022/08/29 02:29:23;;;;;;;12.52;4.95;;;14.60;99.90;;;;;;5052560;28;20120;-65
2022/08/29 02:31:49;;;;;;;12.88;5.25;;;14.70;99.90;;;;;;5052469;28;20045;-64
2022/08/29 02:34:15;;;;;;;9.07;5.20;;;14.60;99.90;;;;;;5051250;28;20048;-65
2022/08/29 02:36:41;;;;;;;9.35;4.97;;;14.60;99.90;;;;;;5051331;28;20036;-65
2022/08/29 02:39:06;;;;;;;12.45;5.55;;;14.60;99.90;;;;;;5052004;28;20067;-64
2022/08/29 02:41:32;;;;;;;10.95;5.00;;;14.60;99.90;;;;;;5052220;28;20187;-65
2022/08/29 02:43:58;;;;;;;10.68;5.15;;;14.60;99.90;;;;;;5050956;28;20116;-64
2022/08/29 02:46:24;;;;;;;12.95;5.40;;;14.60;99.90;;;;;;5061347;28;20056;-65
2022/08/29 02:48:50;;;;;;;10.20;5.03;;;14.60;99.90;;;;;;5052395;28;20047;-64
2022/08/29 02:51:27;;;;;;;10.68;5.22;;;14.60;99.90;;;;;;5055389;28;20037;-65
2022/08/29 02:53:53;;;;;;;8.13;4.80;;;14.60;99.90;;;;;;5054037;28;20103;-64
2022/08/29 02:56:19;;;;;;;10.75;5.35;;;14.60;99.90;;;;;;5062414;28;20028;-64
2022/08/29 02:58:46;;;;;;;12.10;4.55;;;14.60;99.90;;;;;;5072616;28;20055;-65
2022/08/29 03:01:12;;;;;;;11.63;4.68;;;14.60;99.90;;;;;;5045828;28;20036;-65
2022/08/29 03:03:39;;;;;;;11.52;5.43;;;14.60;99.90;;;;;;5051805;28;20037;-64
2022/08/29 03:06:05;;;;;;;10.05;4.63;;;14.60;99.90;;;;;;5051951;28;20553;-65
2022/08/29 03:08:30;;;;;;;14.23;5.38;;;14.60;99.90;;;;;;5058072;28;20033;-65
2022/08/29 03:10:57;;;;;;;10.27;5.45;;;14.60;99.90;;;;;;5060846;28;20501;-65
2022/08/29 03:13:23;;;;;;;9.23;4.78;;;14.60;99.90;;;;;;5053971;28;20082;-64
2022/08/29 03:15:48;;;;;;;11.73;5.22;;;14.60;99.90;;;;;;5054322;28;20757;-64
2022/08/29 03:18:14;;;;;;;8.30;4.70;;;14.60;99.90;;;;;;5054198;28;20037;-64
2022/08/29 03:20:41;;;;;;;8.43;4.65;;;14.60;99.90;;;;;;5037298;28;20040;-65
2022/08/29 03:23:07;;;;;;;10.77;5.15;;;14.70;99.90;;;;;;5064785;28;20036;-64
2022/08/29 03:25:33;;;;;;;13.05;4.95;;;14.60;99.90;;;;;;5056118;28;20087;-64
2022/08/29 03:27:59;;;;;;;8.32;4.82;;;14.70;99.90;;;;;;5033696;28;20049;-64
2022/08/29 03:30:25;;;;;;;8.27;4.63;;;14.70;99.90;;;;;;5051165;28;20057;-64
2022/08/29 03:32:52;;;;;;;10.27;5.00;;;14.70;99.90;;;;;;5051602;28;20108;-64
2022/08/29 03:35:18;;;;;;;11.05;4.90;;;14.70;99.90;;;;;;5050021;28;20492;-64
2022/08/29 03:37:45;;;;;;;9.30;4.85;;;14.70;99.90;;;;;;5050774;28;20104;-64
2022/08/29 03:40:12;;;;;;;7.88;4.45;;;14.70;99.90;;;;;;5051486;28;20072;-64
2022/08/29 03:42:38;;;;;;;12.30;5.15;;;14.70;99.90;;;;;;5050837;28;20530;-65
2022/08/29 03:45:10;;;;;;;10.77;4.90;;;14.70;99.90;;;;;;5062666;28;20119;-64
2022/08/29 03:47:36;;;;;;;9.38;4.95;;;14.70;99.90;;;;;;5051240;28;20029;-64
2022/08/29 03:50:02;;;;;;;13.38;4.90;;;14.60;99.90;;;;;;5053232;28;20078;-64
2022/08/29 03:52:28;;;;;;;12.52;4.63;;;14.60;99.90;;;;;;5050114;28;20379;-64
2022/08/29 03:54:54;;;;;;;10.00;4.68;;;14.50;99.90;;;;;;5051186;28;20041;-65
2022/08/29 03:57:19;;;;;;;12.15;4.80;;;14.50;99.90;;;;;;5051522;28;20036;-64
2022/08/29 03:59:46;;;;;;;12.50;4.53;;;14.40;99.90;;;;;;5058871;28;20581;-64
2022/08/29 04:02:12;;;;;;;8.50;4.82;;;14.30;99.90;;;;;;5053081;28;20036;-64
2022/08/29 04:07:22;;;;;;;10.05;5.15;;;14.30;99.90;;;;;;5052157;28;20440;-64
2022/08/29 04:09:48;;;;;;;15.07;5.20;;;14.30;99.90;;;;;;5055617;28;20108;-64
2022/08/29 04:12:15;;;;;;;11.38;4.72;;;14.30;99.90;;;;;;5050444;28;20502;-64
2022/08/29 04:14:41;;;;;;;10.48;5.25;;;14.20;99.90;;;;;;5049067;28;20086;-64
2022/08/29 04:17:09;;;;;;;14.60;5.72;;;14.20;99.90;;;;;;5055970;28;20044;-64
2022/08/29 04:19:35;;;;;;;11.57;5.10;;;14.20;99.90;;;;;;5070400;28;20043;-64
2022/08/29 04:22:03;;;;;;;11.10;5.05;;;14.20;99.90;;;;;;5070298;28;20064;-64
2022/08/29 04:24:32;;;;;;;11.63;4.80;;;14.10;99.90;;;;;;5062207;28;20068;-64
2022/08/29 04:26:58;;;;;;;9.32;5.05;;;14.10;99.90;;;;;;5062271;28;20047;-64
2022/08/29 04:29:24;;;;;;;10.80;5.20;;;14.10;99.90;;;;;;5050276;28;20041;-64
2022/08/29 04:31:50;;;;;;;8.80;4.90;;;14.10;99.90;;;;;;5034099;28;20105;-64
2022/08/29 04:34:16;;;;;;;8.27;4.80;;;14.00;99.90;;;;;;5052961;28;20041;-64
2022/08/29 04:36:46;;;;;;;8.30;4.82;;;14.00;99.90;;;;;;5056805;28;20117;-64
2022/08/29 04:39:12;;;;;;;11.40;5.10;;;13.90;99.90;;;;;;5055127;28;20028;-64
2022/08/29 04:41:38;;;;;;;9.88;4.75;;;13.90;99.90;;;;;;5051664;28;20087;-64
2022/08/29 04:44:05;;;;;;;12.73;5.32;;;14.00;99.90;;;;;;5054312;28;20033;-64
2022/08/29 04:46:31;;;;;;;9.63;5.00;;;13.90;99.90;;;;;;5051375;28;20503;-64
2022/08/29 04:48:57;;;;;;;10.32;5.05;;;13.80;99.90;;;;;;5053686;28;20118;-64
2022/08/29 04:51:22;;;;;;;12.02;5.20;;;13.80;99.90;;;;;;5053856;28;20076;-64
2022/08/29 04:53:52;;;;;;;13.73;5.22;;;13.70;99.90;;;;;;5050451;28;20069;-64
2022/08/29 04:56:19;;;;;;;9.48;5.07;;;13.70;99.90;;;;;;5048464;28;20033;-64
2022/08/29 04:58:46;;;;;;;10.80;5.20;;;13.70;99.90;;;;;;5049531;28;20530;-64
2022/08/29 05:01:15;;;;;;;8.30;5.03;;;13.70;99.90;;;;;;5052388;28;20446;-64
2022/08/29 05:03:40;;;;;;;8.23;4.88;;;13.80;99.90;;;;;;5055572;28;20032;-64
2022/08/29 05:06:10;;;;;;;9.73;5.50;;;13.80;99.90;;;;;;5043132;28;20055;-64
2022/08/29 05:08:38;;;;;;;8.70;4.97;;;13.80;99.90;;;;;;5054014;28;20400;-64
2022/08/29 05:11:08;;;;;;;9.77;4.50;;;13.80;99.90;;;;;;5060682;28;20098;-64
2022/08/29 05:13:34;;;;;;;11.63;5.28;;;13.70;99.90;;;;;;5036687;28;20479;-64
2022/08/29 05:16:03;;;;;;;10.75;4.95;;;13.70;99.90;;;;;;5063882;28;20039;-64
2022/08/29 05:18:29;;;;;;;8.65;5.38;;;13.70;99.90;;;;;;5052400;28;20037;-65
2022/08/29 05:20:54;;;;;;;10.48;5.35;;;13.70;99.90;;;;;;5054813;28;20583;-64
2022/08/29 05:23:20;;;;;;;9.38;5.28;;;13.70;99.90;;;;;;5052591;28;20036;-64
2022/08/29 05:25:58;;;;;;;12.80;5.60;;;13.70;99.90;;;;;;5050516;28;20135;-64
2022/08/29 05:28:25;;;;;;;14.57;5.13;;;13.60;99.90;;;;;;5033384;28;20049;-65
2022/08/29 05:30:51;;;;;;;15.50;5.85;;;13.60;99.90;;;;;;5052576;28;20041;-65
2022/08/29 05:33:16;;;;;;;15.57;5.88;;;13.60;99.90;;;;;;5032259;28;20057;-64
2022/08/29 05:35:42;;;;;;;10.93;5.65;;;13.70;99.90;;;;;;5062531;28;20112;-64
2022/08/29 05:38:08;;;;;;;15.23;5.50;;;13.70;99.90;;;;;;5054794;28;20380;-65
2022/08/29 05:40:35;;;;;;;10.07;5.68;;;13.80;99.90;;;;;;5060677;28;20067;-64
2022/08/29 05:43:01;;;;;;;10.23;5.80;;;14.00;99.90;;;;;;5053270;28;20045;-64
2022/08/29 05:45:26;;;;;;;13.43;5.90;;;14.10;99.90;;;;;;5056349;28;20043;-64
2022/08/29 05:47:52;;;;;;;9.43;5.68;;;14.20;99.90;;;;;;5049163;28;20033;-65
2022/08/29 05:50:18;;;;;;;11.93;5.57;;;14.30;99.90;;;;;;5021785;28;20071;-64
2022/08/29 05:52:43;;;;;;;9.13;5.43;;;14.40;99.90;;;;;;5050596;28;20113;-64
2022/08/29 05:55:10;;;;;;;13.90;5.75;;;14.50;99.90;;;;;;5053559;28;20079;-64
2022/08/29 05:57:36;;;;;;;8.95;5.55;;;14.60;99.90;;;;;;5062469;28;20040;-64
2022/08/29 06:00:04;;;;;;;12.98;5.40;;;14.70;99.90;;;;;;5060843;28;20032;-64
2022/08/29 06:02:30;;;;;;;12.65;6.13;;;14.80;99.90;;;;;;5055451;28;20493;-64
2022/08/29 06:04:56;;;;;;;11.68;5.65;;;14.90;99.90;;;;;;5062339;28;20041;-64
2022/08/29 06:07:22;;;;;;;14.13;5.53;;;15.00;99.90;;;;;;5059610;28;20040;-64
2022/08/29 06:09:51;;;;;;;14.48;5.72;;;15.00;99.90;;;;;;5052296;28;20044;-64
2022/08/29 06:12:18;;;;;;;17.63;5.55;;;15.10;99.90;;;;;;5048944;28;20517;-64
2022/08/29 06:14:44;;;;;;;14.27;6.57;;;15.20;99.90;;;;;;5063050;28;20033;-64
2022/08/29 06:17:10;;;;;;;11.10;5.55;;;15.30;99.90;;;;;;5058544;28;20028;-64
2022/08/29 06:19:38;;;;;;;14.43;5.60;;;15.40;99.90;;;;;;5072382;28;20124;-64
2022/08/29 06:22:06;;;;;;;12.57;5.57;;;15.40;99.90;;;;;;5064980;28;20052;-64
2022/08/29 06:24:33;;;;;;;13.23;5.97;;;15.50;99.90;;;;;;5034419;28;20048;-64
2022/08/29 06:27:00;;;;;;;11.90;5.93;;;15.60;99.90;;;;;;5052958;28;20052;-64
2022/08/29 06:29:26;;;;;;;14.15;5.78;;;15.70;99.90;;;;;;5054928;28;20039;-64
2022/08/29 06:31:55;;;;;;;10.38;5.70;;;15.70;99.90;;;;;;5051385;28;20167;-64
2022/08/29 06:34:21;;;;;;;16.00;5.88;;;15.70;99.90;;;;;;5052247;28;20041;-64
2022/08/29 06:36:48;;;;;;;13.23;6.05;;;15.80;99.90;;;;;;5052551;28;20116;-64
2022/08/29 06:39:13;;;;;;;13.07;6.40;;;15.90;99.90;;;;;;5056982;28;20140;-64
2022/08/29 06:41:40;;;;;;;13.23;5.78;;;15.90;99.90;;;;;;5052001;28;20502;-64
2022/08/29 06:44:07;;;;;;;8.45;5.57;;;15.90;99.90;;;;;;5034870;28;20041;-64
2022/08/29 06:46:39;;;;;;;9.73;6.03;;;16.00;99.90;;;;;;5054940;28;20047;-64
2022/08/29 06:49:10;;;;;;;12.55;5.20;;;16.00;99.90;;;;;;5063436;28;20073;-64
2022/08/29 06:51:38;;;;;;;13.15;5.55;;;16.10;99.90;;;;;;5065771;28;20041;-64
2022/08/29 06:54:06;;;;;;;10.07;5.57;;;16.10;99.90;;;;;;5072499;28;20032;-64
2022/08/29 06:56:33;;;;;;;10.50;5.57;;;16.10;99.90;;;;;;5058322;28;20036;-64
2022/08/29 06:58:59;;;;;;;13.20;5.80;;;16.10;99.90;;;;;;5051627;28;20036;-64
2022/08/29 07:01:25;;;;;;;12.13;6.10;;;16.30;99.90;;;;;;5050663;28;20091;-64
2022/08/29 07:03:56;;;;;;;12.35;5.43;;;16.40;99.90;;;;;;5052516;28;20554;-64
2022/08/29 07:06:23;;;;;;;11.63;6.05;;;16.40;99.90;;;;;;5042640;28;20438;-64
2022/08/29 07:08:49;;;;;;;12.32;5.28;;;16.50;99.90;;;;;;5052043;28;20090;-64
2022/08/29 07:11:15;;;;;;;10.50;5.10;;;16.70;99.90;;;;;;5051471;28;20041;-64
2022/08/29 07:13:41;;;;;;;10.80;5.63;;;16.80;99.90;;;;;;5052659;28;20029;-64
2022/08/29 07:16:11;;;;;;;12.18;5.68;;;17.00;99.90;;;;;;5050606;28;20636;-64
2022/08/29 07:18:37;;;;;;;15.60;5.15;;;17.10;99.90;;;;;;5052333;28;20585;-64
2022/08/29 07:21:07;;;;;;;12.25;4.80;;;17.20;99.90;;;;;;5058931;28;20093;-64
2022/08/29 07:23:33;;;;;;;12.77;5.50;;;17.30;99.90;;;;;;5053327;28;20140;-64
2022/08/29 07:26:10;;;;;;;13.07;4.68;;;17.40;99.90;;;;;;5051696;28;20508;-65
2022/08/29 07:28:36;;;;;;;10.48;4.22;;;17.50;99.90;;;;;;5051720;28;20040;-64
2022/08/29 07:31:02;;;;;;;10.15;4.30;;;17.50;99.90;;;;;;5054960;28;20106;-65
2022/08/29 07:33:28;;;;;;;10.50;4.22;;;17.60;99.90;;;;;;5049578;28;20040;-64
2022/08/29 07:35:53;;;;;;;8.48;4.22;;;17.70;99.90;;;;;;5055120;28;20071;-64
2022/08/29 07:38:20;;;;;;;16.42;4.70;;;17.70;99.90;;;;;;5053339;28;20029;-65
2022/08/29 07:40:45;;;;;;;10.60;4.25;;;17.80;99.90;;;;;;5056975;28;20041;-65
2022/08/29 07:43:11;;;;;;;13.75;4.32;;;17.80;99.90;;;;;;5050943;28;20037;-64
2022/08/29 07:45:40;;;;;;;8.57;4.53;;;17.80;99.90;;;;;;5050626;28;20049;-64
2022/08/29 07:48:06;;;;;;;9.77;4.32;;;17.70;99.90;;;;;;5059285;28;20040;-64
2022/08/29 07:50:31;;;;;;;13.20;4.00;;;17.70;99.90;;;;;;5057196;28;20041;-64
2022/08/29 07:52:57;;;;;;;7.88;4.00;;;17.70;99.90;;;;;;5050176;28;20155;-64
2022/08/29 07:55:23;;;;;;;10.95;4.65;;;17.70;99.90;;;;;;5048561;28;20044;-64
2022/08/29 07:57:52;;;;;;;11.30;4.10;;;17.70;99.90;;;;;;5050504;28;20040;-64
2022/08/29 08:00:19;;;;;;;15.43;4.68;;;17.80;99.90;;;;;;5049556;28;20074;-64
2022/08/29 08:02:46;;;;;;;10.07;4.10;;;17.80;99.90;;;;;;5049560;28;20048;-65
2022/08/29 08:05:12;;;;;;;9.48;4.00;;;18.00;99.90;;;;;;5057221;28;20036;-64
2022/08/29 08:07:38;;;;;;;10.82;4.10;;;18.10;99.90;;;;;;5060299;28;20048;-64
2022/08/29 08:10:04;;;;;;;6.78;4.00;;;18.30;99.90;;;;;;5062524;28;20155;-64
2022/08/29 08:12:29;;;;;;;16.02;5.07;;;18.50;99.90;;;;;;5054123;28;20063;-64
2022/08/29 08:14:56;;;;;;;12.07;4.13;;;18.70;99.90;;;;;;5050481;28;20116;-65
2022/08/29 08:17:22;;;;;;;10.52;3.88;;;18.80;99.90;;;;;;5059781;28;20167;-65
2022/08/29 08:19:48;;;;;;;10.35;4.22;;;18.90;99.90;;;;;;5061283;28;20040;-64
2022/08/29 08:22:14;;;;;;;12.70;4.20;;;18.90;99.90;;;;;;5068716;28;20040;-64
2022/08/29 08:24:39;;;;;;;10.95;4.18;;;18.90;99.90;;;;;;5049983;28;20052;-65
2022/08/29 08:27:05;;;;;;;10.63;3.90;;;19.00;99.90;;;;;;5053519;28;20032;-65
2022/08/29 08:29:31;;;;;;;14.30;4.57;;;19.20;99.90;;;;;;5049978;28;20500;-65
2022/08/29 08:31:58;;;;;;;10.32;3.90;;;19.30;99.90;;;;;;5049950;28;20459;-64
2022/08/29 08:34:25;;;;;;;9.43;3.67;;;19.40;99.90;;;;;;5032905;28;20050;-65
2022/08/29 08:36:51;;;;;;;11.05;3.63;;;19.30;99.90;;;;;;5060962;28;20078;-65
2022/08/29 08:39:17;;;;;;;13.80;4.00;;;19.40;99.90;;;;;;5052071;28;20033;-65
2022/08/29 08:41:48;;;;;;;10.43;3.58;;;19.50;99.90;;;;;;5050227;28;20115;-64
2022/08/29 08:44:25;;;;;;;6.57;3.53;;;19.60;99.90;;;;;;5051360;28;20125;-65
2022/08/29 08:46:57;;;;;;;12.82;3.75;;;19.90;99.90;;;;;;5050325;28;20094;-65
2022/08/29 08:49:46;;;;;;;7.43;3.50;;;20.00;99.90;;;;;;5050228;28;20106;-65
2022/08/29 08:52:17;;;;;;;8.38;3.20;;;20.10;99.90;;;;;;5049924;28;20037;-65
2022/08/29 08:54:52;;;;;;;12.05;3.78;;;20.20;99.90;;;;;;5047896;28;20037;-64
2022/08/29 08:57:20;;;;;;;8.30;3.33;;;20.30;99.90;;;;;;5050184;28;20029;-65
2022/08/29 08:59:57;;;;;;;6.88;3.10;;;20.30;99.90;;;;;;5031178;28;20155;-65
2022/08/29 09:02:34;;;;;;;9.40;3.60;;;20.40;99.90;;;;;;5049076;28;20663;-65
2022/08/29 09:05:11;;;;;;;7.70;3.35;;;20.50;99.90;;;;;;5050220;28;20517;-65
2022/08/29 09:07:42;;;;;;;7.45;3.10;;;20.50;99.90;;;;;;5050510;28;20037;-65
2022/08/29 09:10:11;;;;;;;8.23;3.00;;;20.40;99.90;;;;;;5052079;28;20134;-65
2022/08/29 09:12:45;;;;;;;9.32;2.88;;;20.50;99.90;;;;;;5049523;28;20037;-65
2022/08/29 09:15:19;;;;;;;11.57;3.15;;;20.50;99.90;;;;;;5032370;28;20261;-65
2022/08/29 09:17:56;;;;;;;9.73;3.15;;;20.80;99.90;;;;;;5048501;28;20040;-65
2022/08/29 09:20:28;;;;;;;7.03;3.08;;;20.90;99.90;;;;;;5049469;28;20048;-65
2022/08/29 09:23:06;;;;;;;8.65;3.00;;;20.90;99.90;;;;;;5049838;28;20112;-65
2022/08/29 09:25:35;;;;;;;7.55;2.70;;;21.10;99.90;;;;;;5058913;28;20032;-65
2022/08/29 09:28:04;;;;;;;8.95;3.60;;;21.20;99.90;;;;;;5065079;28;20101;-65
2022/08/29 09:30:32;;;;;;;9.40;3.67;;;21.30;99.90;;;;;;5042105;28;20119;-65
2022/08/29 09:33:09;;;;;;;9.45;3.38;;;21.30;99.90;;;;;;5058936;28;20055;-65
2022/08/29 09:35:50;;;;;;;8.48;3.40;;;21.30;99.90;;;;;;5055811;28;20040;-65
2022/08/29 09:38:16;;;;;;;;;;;21.20;99.90;;;;;;5050377;28;20037;-66
2022/08/29 09:40:52;;;;;;;9.80;3.40;;;21.10;99.90;;;;;;5056273;28;20124;-66
2022/08/29 09:43:32;;;;;;;8.77;3.45;;;21.10;99.90;;;;;;5037666;28;20041;-65
2022/08/29 09:46:23;;;;;;;7.55;3.25;;;21.00;99.90;;;;;;5067999;28;20072;-64
2022/08/29 09:48:56;;;;;;;5.07;2.95;;;21.10;99.90;;;;;;5067493;28;20032;-65
2022/08/29 09:51:37;;;;;;;7.72;3.70;;;21.30;99.90;;;;;;5052027;28;20517;-65
2022/08/29 09:54:30;;;;;;;11.40;4.60;;;21.60;99.90;;;;;;5064920;28;20036;-65
2022/08/29 09:57:18;;;;;;;10.98;3.70;;;21.80;99.90;;;;;;5073055;28;20035;-65
2022/08/29 09:59:49;;;;;;;13.32;3.70;;;22.00;99.90;;;;;;5072543;28;20037;-65
2022/08/29 10:02:28;;;;;;;9.63;3.28;;;22.10;99.90;;;;;;5061730;28;20495;-65
2022/08/29 10:05:08;;;;;;;10.23;2.95;;;22.20;99.90;;;;;;5055049;28;20043;-65
2022/08/29 10:07:45;;;;;;;8.70;3.45;;;22.20;99.90;;;;;;5063129;28;20104;-65
2022/08/29 10:10:28;;;;;;;8.68;3.92;;;22.40;99.90;;;;;;5060407;28;20044;-65
2022/08/29 10:13:00;;;;;;;7.50;3.70;;;22.80;99.90;;;;;;5052702;28;20037;-65
2022/08/29 10:15:49;;;;;;;8.52;3.78;;;22.80;99.90;;;;;;5052860;28;20479;-65
2022/08/29 10:18:35;;;;;;;7.78;3.47;;;22.80;99.60;;;;;;5049684;28;20351;-65
2022/08/29 10:21:11;;;;;;;9.63;3.90;;;22.90;99.90;;;;;;5052104;28;20052;-65
2022/08/29 10:24:02;;;;;;;10.77;4.18;;;23.00;99.90;;;;;;5052311;28;20582;-65
2022/08/29 10:26:56;;;;;;;9.35;4.25;;;23.10;99.90;;;;;;5059219;28;20643;-65
2022/08/29 10:29:43;;;;;;;10.45;3.95;;;23.10;99.90;;;;;;5036537;28;20043;-65
2022/08/29 10:32:23;;;;;;;10.50;3.95;;;23.20;99.90;;;;;;5052344;28;20048;-65
2022/08/29 10:35:10;;;;;;;8.70;3.60;;;23.20;99.90;;;;;;5055590;28;20479;-65
2022/08/29 10:38:06;;;;;;;9.70;4.00;;;23.10;99.90;;;;;;5052535;28;20052;-65
2022/08/29 10:40:44;;;;;;;6.88;3.95;;;22.90;99.90;;;;;;5052376;28;20048;-65
2022/08/29 10:43:49;;;;;;;9.10;3.58;;;23.00;99.90;;;;;;5054573;28;20041;-65
2022/08/29 10:46:40;;;;;;;8.63;3.70;;;23.10;99.90;;;;;;5034379;28;20044;-65
2022/08/29 10:49:27;;;;;;;7.80;3.55;;;23.20;99.90;;;;;;5052284;28;20044;-65
2022/08/29 10:52:10;;;;;;;8.38;3.60;;;23.20;99.30;;;;;;5051173;28;20056;-65
2022/08/29 10:55:01;;;;;;;7.72;3.40;;;23.30;99.70;;;;;;5050835;28;20033;-65
2022/08/29 10:57:49;;;;;;;9.03;3.83;;;23.40;98.90;;;;;;5055197;28;20040;-65
2022/08/29 11:00:20;;;;;;;7.97;4.20;;;23.50;99.00;;;;;;5053987;28;20274;-65
2022/08/29 11:02:45;;;;;;;10.38;3.95;;;23.80;99.90;;;;;;5033657;28;20048;-65
2022/08/29 11:05:23;;;;;;;9.30;4.10;;;24.00;99.90;;;;;;5052196;28;20041;-65
2022/08/29 11:08:00;;;;;;;9.35;3.75;;;24.00;98.90;;;;;;5050170;28;20384;-64
2022/08/29 11:10:38;;;;;;;8.88;3.72;;;23.80;98.20;;;;;;5051266;28;20037;-65
2022/08/29 11:13:28;;;;;;;6.78;4.05;;;23.70;99.00;;;;;;5051552;28;20037;-65
2022/08/29 11:16:01;;;;;;;12.88;4.00;;;23.60;97.90;;;;;;5055053;28;20082;-64
2022/08/29 11:18:51;;;;;;;9.35;3.65;;;23.60;99.60;;;;;;5058077;28;20575;-65
2022/08/29 11:21:33;;;;;;;10.93;4.05;;;23.60;99.50;;;;;;5051141;28;20045;-65
2022/08/29 11:24:02;;;;;;;9.10;4.05;;;23.50;98.90;;;;;;5051517;28;20535;-65
2022/08/29 11:26:42;;;;;;;6.03;3.92;;;23.50;99.90;;;;;;5050980;28;20041;-66
2022/08/29 11:29:26;;;;;;;11.25;4.15;;;23.50;98.40;;;;;;5051564;28;20040;-66
2022/08/29 11:32:05;;;;;;;7.40;3.60;;;23.40;99.80;;;;;;5034099;28;20530;-66
2022/08/29 11:34:47;;;;;;;7.30;4.15;;;23.40;99.10;;;;;;5049118;28;20041;-66
2022/08/29 11:37:19;;;;;;;11.70;4.00;;;23.40;99.90;;;;;;5058092;28;20044;-66
2022/08/29 11:39:56;;;;;;;8.88;3.78;;;23.40;99.60;;;;;;5051333;28;20041;-66
2022/08/29 11:42:29;;;;;;;7.70;3.63;;;23.40;98.90;;;;;;5051320;28;20041;-66
2022/08/29 11:44:57;;;;;;;9.15;3.60;;;23.40;99.40;;;;;;5055605;28;20052;-66
2022/08/29 11:47:56;;;;;;;9.70;4.35;;;23.40;99.10;;;;;;5051337;28;20052;-66
2022/08/29 11:50:41;;;;;;;10.60;3.83;;;23.50;97.90;;;;;;5050062;28;20128;-66
2022/08/29 11:53:09;;;;;;;13.85;4.63;;;23.50;98.00;;;;;;5050901;28;20032;-66
2022/08/29 11:55:36;;;;;;;18.33;4.10;;;23.40;98.90;;;;;;5050913;28;20124;-66
2022/08/29 11:58:27;;;;;;;8.30;4.10;;;23.50;99.40;;;;;;5052124;28;20041;-66
2022/08/29 12:00:54;;;;;;;;;;;23.50;98.80;;;;;;5033082;28;20484;-66
2022/08/29 12:03:32;;;;;;;24.95;6.68;;;23.30;98.20;;;;;;5050920;28;19917;-66
2022/08/29 12:06:11;;;;;;;8.32;3.97;;;23.30;98.90;;;;;;5053585;28;20115;-66
2022/08/29 12:08:52;;;;;;;9.57;4.28;;;23.10;99.90;;;;;;5054952;28;20037;-66
2022/08/29 12:11:18;;;;;;;10.45;3.92;;;23.30;98.40;;;;;;5050678;28;20246;-66
2022/08/29 12:13:51;;;;;;;8.80;3.90;;;23.40;99.80;;;;;;5053523;28;20561;-66
2022/08/29 12:16:23;;;;;;;7.18;3.88;;;23.70;99.40;;;;;;5052528;28;20041;-66
2022/08/29 12:18:52;;;;;;;11.95;4.05;;;23.80;98.20;;;;;;5048909;28;20029;-66
2022/08/29 12:21:47;;;;;;;11.02;4.50;;;23.90;98.60;;;;;;5030618;28;20106;-66
2022/08/29 12:24:27;;;;;;;13.48;4.72;;;23.80;99.00;;;;;;5047779;28;20052;-66
2022/08/29 12:26:53;;;;;;;10.80;4.95;;;23.60;99.10;;;;;;5049898;28;20076;-66
2022/08/29 12:29:23;;;;;;;13.82;4.60;;;23.50;99.80;;;;;;5049054;28;20143;-66
2022/08/29 12:32:07;;;;;;;12.27;4.85;;;23.40;99.90;;;;;;5049181;28;20381;-66
2022/08/29 12:34:53;;;;;;;8.32;4.18;;;23.50;99.90;;;;;;5050588;28;20037;-66
2022/08/29 12:37:46;;;;;;;12.90;5.20;;;23.50;99.80;;;;;;5050253;28;20041;-65
2022/08/29 12:40:26;;;;;;;10.55;4.55;;;23.40;99.70;;;;;;5050181;28;20456;-64
2022/08/29 12:43:19;;;;;;;10.93;4.63;;;23.40;99.30;;;;;;5049801;28;20025;-67
2022/08/29 12:45:46;;;;;;;10.43;4.47;;;23.50;99.90;;;;;;5050278;28;20071;-67
2022/08/29 12:48:39;;;;;;;13.57;5.03;;;23.60;99.80;;;;;;5049054;28;20718;-66
2022/08/29 12:51:05;;;;;;;14.98;4.28;;;23.60;99.60;;;;;;5041393;28;20081;-66
2022/08/29 12:53:33;;;;;;;8.43;4.35;;;23.60;99.20;;;;;;5050068;28;20037;-65
2022/08/29 12:56:18;;;;;;;10.65;4.55;;;23.60;99.50;;;;;;5050750;28;20079;-65
2022/08/29 12:58:52;;;;;;;9.48;4.18;;;23.70;98.90;;;;;;5052438;28;20040;-64
2022/08/29 13:01:24;;;;;;;10.10;4.30;;;24.10;98.80;;;;;;5049309;28;20630;-65
2022/08/29 13:04:18;;;;;;;10.15;3.97;;;24.20;98.20;;;;;;5031728;28;20048;-66
2022/08/29 13:06:57;;;;;;;9.40;3.75;;;24.20;97.80;;;;;;5048365;28;20513;-66